Time;durP1;ratioP1;P1;durP2;ratioP2;P2;SDS_P1;SDS_P2;PMS_P1;PMS_P2;Temp;Humidity;BMP_temperature;BMP_pressure;BME280_temperature;BME280_humidity;BME280_pressure;Samples;Min_cycle;Max_cycle;Signal;HPM_P1;HPM_P2
2023/01/03 00:00:20;;;;;;;1.88;1.77;;;19.50;70.70;;;;;;5045597;28;20056;-14
2023/01/03 00:02:45;;;;;;;3.17;1.50;;;19.50;70.70;;;;;;5044917;28;20399;-18
2023/01/03 00:05:11;;;;;;;1.60;1.50;;;19.50;70.50;;;;;;5045375;28;20542;-15
2023/01/03 00:07:37;;;;;;;2.38;1.63;;;19.50;70.40;;;;;;5049162;28;20049;-20
2023/01/03 00:10:06;;;;;;;1.90;1.38;;;19.50;70.40;;;;;;5049835;28;20048;-15
2023/01/03 00:12:31;;;;;;;1.52;1.42;;;19.50;70.40;;;;;;5047375;28;20068;-34
2023/01/03 00:14:57;;;;;;;1.00;1.00;;;19.50;70.30;;;;;;5049934;28;20158;-21
2023/01/03 00:17:23;;;;;;;1.85;1.20;;;19.50;70.40;;;;;;5049586;28;20064;-21
2023/01/03 00:19:49;;;;;;;0.90;0.90;;;19.50;70.20;;;;;;5048514;28;20079;-15
2023/01/03 00:22:15;;;;;;;1.15;1.00;;;19.50;70.20;;;;;;5049749;28;20041;-18
2023/01/03 00:24:41;;;;;;;1.83;1.20;;;19.50;70.10;;;;;;5048168;28;20111;-14
2023/01/03 00:27:07;;;;;;;1.35;1.00;;;19.50;70.00;;;;;;5046906;28;20092;-14
2023/01/03 00:29:32;;;;;;;1.15;1.05;;;19.50;70.10;;;;;;5051820;28;20505;-23
2023/01/03 00:31:58;;;;;;;1.00;1.00;;;19.50;70.20;;;;;;5050672;28;20041;-15
2023/01/03 00:34:24;;;;;;;3.58;1.15;;;19.50;70.10;;;;;;5050221;28;20116;-20
2023/01/03 00:36:49;;;;;;;1.10;1.00;;;19.50;70.20;;;;;;5048879;28;20053;-14
2023/01/03 00:39:15;;;;;;;1.45;1.20;;;19.40;70.20;;;;;;5049531;28;20514;-15
2023/01/03 00:41:40;;;;;;;1.10;1.00;;;19.40;70.30;;;;;;5047902;28;20055;-14
2023/01/03 00:44:06;;;;;;;1.10;1.00;;;19.40;70.40;;;;;;5058842;28;20039;-18
2023/01/03 00:46:32;;;;;;;0.93;0.90;;;19.40;70.30;;;;;;5078295;28;20044;-15
2023/01/03 00:48:57;;;;;;;1.60;1.17;;;19.50;70.70;;;;;;5078918;28;20043;-15
2023/01/03 00:51:29;;;;;;;1.23;1.13;;;19.40;70.50;;;;;;5078834;28;20044;-15
2023/01/03 00:53:56;;;;;;;0.95;0.95;;;19.40;70.70;;;;;;5081026;28;20176;-27
2023/01/03 00:56:23;;;;;;;2.47;1.33;;;19.40;70.70;;;;;;5079649;28;20111;-14
2023/01/03 00:58:49;;;;;;;1.65;0.93;;;19.40;70.70;;;;;;5078185;28;20062;-15
2023/01/03 01:01:23;;;;;;;1.55;1.30;;;19.30;70.60;;;;;;5074134;28;20135;-16
2023/01/03 01:03:51;;;;;;;1.25;1.15;;;19.40;70.60;;;;;;5077335;28;20624;-14
2023/01/03 01:06:18;;;;;;;1.00;0.95;;;19.40;70.60;;;;;;5080031;28;20044;-17
2023/01/03 01:08:44;;;;;;;1.08;1.00;;;19.40;71.50;;;;;;5078668;28;20048;-13
2023/01/03 01:11:09;;;;;;;0.90;0.90;;;19.30;70.90;;;;;;5076773;28;20029;-14
2023/01/03 01:13:35;;;;;;;1.15;0.85;;;19.30;71.00;;;;;;5077840;28;20123;-14
2023/01/03 01:16:06;;;;;;;1.40;1.13;;;19.30;70.90;;;;;;5076157;28;20051;-14
2023/01/03 01:18:31;;;;;;;0.90;0.90;;;19.30;71.00;;;;;;5074830;28;20413;-15
2023/01/03 01:20:57;;;;;;;0.95;0.95;;;19.30;71.00;;;;;;5078790;28;20070;-13
2023/01/03 01:23:22;;;;;;;1.13;1.08;;;19.30;70.90;;;;;;5076552;28;20066;-14
2023/01/03 01:25:48;;;;;;;1.45;1.00;;;19.30;70.80;;;;;;5078735;28;20036;-15
2023/01/03 01:28:14;;;;;;;0.88;0.88;;;19.40;70.80;;;;;;5079831;28;20497;-14
2023/01/03 01:30:39;;;;;;;1.00;0.80;;;19.30;71.10;;;;;;5082438;28;20040;-13
2023/01/03 01:33:05;;;;;;;1.20;1.15;;;19.30;71.80;;;;;;5079329;28;20154;-15
2023/01/03 01:35:31;;;;;;;0.77;0.77;;;19.30;70.90;;;;;;5079550;28;20043;-14
2023/01/03 01:37:56;;;;;;;0.82;0.82;;;19.30;71.00;;;;;;5074717;28;20633;-13
2023/01/03 01:40:22;;;;;;;1.10;1.00;;;19.30;70.90;;;;;;5080679;28;20047;-15
2023/01/03 01:45:31;;;;;;;1.20;1.10;;;19.30;71.20;;;;;;5068063;28;20043;-16
2023/01/03 01:47:58;;;;;;;0.90;0.73;;;19.20;71.20;;;;;;5075531;28;20131;-15
2023/01/03 01:50:36;;;;;;;0.95;0.73;;;19.20;71.20;;;;;;5058823;28;20071;-15
2023/01/03 01:53:10;;;;;;;0.60;0.60;;;19.20;71.50;;;;;;5079329;28;20131;-13
2023/01/03 01:55:42;;;;;;;0.77;0.77;;;19.20;71.40;;;;;;5077911;28;20036;-14
2023/01/03 01:58:08;;;;;;;0.80;0.70;;;19.20;71.40;;;;;;5077214;28;20048;-13
2023/01/03 02:00:33;;;;;;;0.85;0.85;;;19.20;71.40;;;;;;5080553;28;20494;-19
2023/01/03 02:02:59;;;;;;;0.70;0.70;;;19.20;71.50;;;;;;5077700;28;20109;-15
2023/01/03 02:05:25;;;;;;;0.88;0.80;;;19.20;71.50;;;;;;5076490;28;20425;-24
2023/01/03 02:07:51;;;;;;;0.73;0.60;;;19.20;71.30;;;;;;5059267;28;20131;-16
2023/01/03 02:10:22;;;;;;;0.80;0.80;;;19.20;71.50;;;;;;5078714;28;20386;-16
2023/01/03 02:13:18;;;;;;;1.00;0.90;;;19.20;71.50;;;;;;5059573;28;20052;-14
2023/01/03 02:15:43;;;;;;;0.70;0.70;;;19.10;71.70;;;;;;5069139;28;20390;-15
2023/01/03 02:18:09;;;;;;;0.88;0.80;;;19.10;71.70;;;;;;5077823;28;20052;-15
2023/01/03 02:20:40;;;;;;;0.60;0.60;;;19.10;71.80;;;;;;5080473;28;20497;-21
2023/01/03 02:23:44;;;;;;;0.70;0.65;;;19.10;71.70;;;;;;5059469;28;20051;-22
2023/01/03 02:26:21;;;;;;;0.70;0.70;;;19.10;71.80;;;;;;5035673;28;20517;-14
2023/01/03 02:29:17;;;;;;;0.80;0.80;;;19.10;71.70;;;;;;5044239;28;20048;-14
2023/01/03 02:32:33;;;;;;;1.25;0.80;;;19.10;71.70;;;;;;5035666;28;20051;-15
2023/01/03 02:35:17;;;;;;;0.80;0.80;;;19.10;71.70;;;;;;4944595;28;20548;-20
2023/01/03 02:38:10;;;;;;;1.10;0.90;;;19.00;71.80;;;;;;4937548;28;20042;-14
2023/01/03 02:40:38;;;;;;;0.68;0.60;;;19.00;71.80;;;;;;4957230;28;20051;-14
2023/01/03 02:43:12;;;;;;;0.98;0.88;;;19.00;71.90;;;;;;4958987;28;20534;-14
2023/01/03 02:45:52;;;;;;;0.60;0.57;;;19.10;71.90;;;;;;4956564;28;20520;-15
2023/01/03 02:48:39;;;;;;;1.10;0.60;;;19.00;71.90;;;;;;4954308;28;20932;-14
2023/01/03 02:51:10;;;;;;;1.42;0.70;;;19.00;71.80;;;;;;4951757;28;20051;-16
2023/01/03 02:53:39;;;;;;;0.88;0.70;;;19.10;71.70;;;;;;4941319;28;20047;-13
2023/01/03 02:56:08;;;;;;;1.38;0.77;;;19.00;71.80;;;;;;4950807;28;20070;-17
2023/01/03 02:58:35;;;;;;;0.70;0.70;;;19.10;71.60;;;;;;4956768;28;20046;-20
2023/01/03 03:01:01;;;;;;;0.65;0.55;;;19.10;71.60;;;;;;4958484;28;20069;-14
2023/01/03 03:03:30;;;;;;;0.70;0.60;;;19.00;71.80;;;;;;4959985;28;20039;-14
2023/01/03 03:06:05;;;;;;;0.35;0.35;;;19.00;71.90;;;;;;4959053;28;20045;-13
2023/01/03 03:08:31;;;;;;;0.65;0.60;;;19.00;71.80;;;;;;4960783;28;20047;-16
2023/01/03 03:13:47;;;;;;;1.33;0.50;;;18.90;72.00;;;;;;5062819;28;20047;-14
2023/01/03 03:25:26;;;;;;;0.65;0.50;;;18.90;71.90;;;;;;5077410;28;20109;-14
2023/01/03 03:30:45;;;;;;;0.73;0.70;;;18.80;72.10;;;;;;5062780;28;20113;-13
2023/01/03 03:33:11;;;;;;;0.52;0.52;;;18.90;73.00;;;;;;5074937;28;20040;-14
2023/01/03 03:35:59;;;;;;;0.60;0.45;;;18.80;72.10;;;;;;5060159;28;20047;-17
2023/01/03 03:38:45;;;;;;;1.33;0.50;;;18.90;72.00;;;;;;5069337;28;20127;-14
2023/01/03 03:47:21;;;;;;;0.82;0.60;;;18.80;72.00;;;;;;5060255;28;20269;-19
2023/01/03 03:49:47;;;;;;;0.80;0.80;;;18.80;71.90;;;;;;5061829;28;20041;-14
2023/01/03 03:52:15;;;;;;;0.50;0.50;;;18.90;71.90;;;;;;5062050;28;20052;-18
2023/01/03 03:54:44;;;;;;;0.60;0.52;;;18.90;72.70;;;;;;5081689;28;20044;-14
2023/01/03 03:57:13;;;;;;;1.63;0.50;;;18.90;71.50;;;;;;5061659;28;20043;-16
2023/01/03 03:59:40;;;;;;;0.47;0.47;;;18.90;71.60;;;;;;5057746;28;20083;-20
2023/01/03 04:02:05;;;;;;;0.50;0.50;;;18.90;71.60;;;;;;5064657;28;20127;-14
2023/01/03 04:04:36;;;;;;;0.77;0.55;;;18.90;72.50;;;;;;5081856;28;20126;-16
2023/01/03 04:07:02;;;;;;;0.52;0.47;;;18.90;71.60;;;;;;5060937;28;20043;-16
2023/01/03 04:09:28;;;;;;;0.63;0.50;;;18.90;71.70;;;;;;5063306;28;20032;-14
2023/01/03 04:11:53;;;;;;;0.63;0.40;;;18.80;71.70;;;;;;5077642;28;20098;-14
2023/01/03 04:14:19;;;;;;;1.23;0.60;;;18.80;71.70;;;;;;5079871;28;20140;-14
2023/01/03 04:16:44;;;;;;;0.85;0.50;;;18.90;71.60;;;;;;5078544;28;20080;-15
2023/01/03 04:19:10;;;;;;;0.50;0.50;;;18.80;71.60;;;;;;5075084;28;20413;-13
2023/01/03 04:21:35;;;;;;;0.70;0.60;;;18.90;71.50;;;;;;5083087;28;20044;-14
2023/01/03 04:24:03;;;;;;;0.30;0.30;;;18.80;71.50;;;;;;5079093;28;20051;-14
2023/01/03 04:26:28;;;;;;;0.50;0.45;;;18.90;71.40;;;;;;5080744;28;20517;-14
2023/01/03 04:28:54;;;;;;;0.57;0.50;;;18.80;71.50;;;;;;5078791;28;20070;-13
2023/01/03 04:31:19;;;;;;;0.55;0.47;;;18.80;71.70;;;;;;5080246;28;20040;-16
2023/01/03 04:33:45;;;;;;;0.40;0.40;;;18.80;71.50;;;;;;5074733;28;20048;-16
2023/01/03 04:36:11;;;;;;;0.30;0.30;;;18.80;71.50;;;;;;5079338;28;20101;-19
2023/01/03 04:38:36;;;;;;;0.50;0.50;;;18.80;71.50;;;;;;5080190;28;20124;-14
2023/01/03 04:41:04;;;;;;;1.80;0.45;;;18.80;71.40;;;;;;5081338;28;20044;-13
2023/01/03 04:46:13;;;;;;;0.47;0.47;;;18.80;71.40;;;;;;5073232;28;20125;-15
2023/01/03 04:48:39;;;;;;;0.52;0.40;;;18.70;71.50;;;;;;5080451;28;20458;-16
2023/01/03 04:51:04;;;;;;;0.45;0.40;;;18.70;71.70;;;;;;5081805;28;20075;-14
2023/01/03 04:53:30;;;;;;;0.40;0.40;;;18.80;71.60;;;;;;5079435;28;20036;-14
2023/01/03 04:55:56;;;;;;;0.55;0.55;;;18.80;71.20;;;;;;5082169;28;20531;-14
2023/01/03 04:58:21;;;;;;;0.50;0.50;;;18.90;71.30;;;;;;5079284;28;20048;-16
2023/01/03 05:00:47;;;;;;;0.90;0.60;;;18.80;71.30;;;;;;5078718;28;20059;-14
2023/01/03 05:03:13;;;;;;;0.40;0.40;;;18.80;71.30;;;;;;5080460;28;20181;-16
2023/01/03 05:05:38;;;;;;;0.60;0.60;;;18.80;71.30;;;;;;5080232;28;20483;-15
2023/01/03 05:08:05;;;;;;;0.43;0.40;;;18.90;71.10;;;;;;5077838;28;20512;-14
2023/01/03 05:10:31;;;;;;;0.38;0.35;;;18.80;71.30;;;;;;5079271;28;20586;-16
2023/01/03 05:12:59;;;;;;;0.45;0.45;;;18.80;71.20;;;;;;5078011;28;20032;-21
2023/01/03 05:15:29;;;;;;;0.70;0.40;;;18.80;71.30;;;;;;5076266;28;20040;-17
2023/01/03 05:17:54;;;;;;;0.50;0.40;;;18.80;71.20;;;;;;5076168;28;20044;-15
2023/01/03 05:25:49;;;;;;;0.65;0.47;;;18.70;71.30;;;;;;5079274;28;20578;-14
2023/01/03 05:28:15;;;;;;;0.40;0.40;;;18.70;71.20;;;;;;5071905;28;20055;-14
2023/01/03 05:30:41;;;;;;;0.50;0.40;;;18.70;71.30;;;;;;5074452;28;20066;-13
2023/01/03 05:33:07;;;;;;;0.30;0.30;;;18.70;71.20;;;;;;5078399;28;20032;-15
2023/01/03 05:35:32;;;;;;;1.75;0.30;;;18.80;71.20;;;;;;5080092;28;20044;-14
2023/01/03 05:37:58;;;;;;;0.32;0.32;;;18.80;71.20;;;;;;5077401;28;20416;-16
2023/01/03 05:40:23;;;;;;;0.95;0.47;;;18.70;71.20;;;;;;5080466;28;20046;-20
2023/01/03 05:42:49;;;;;;;0.80;0.70;;;18.80;71.30;;;;;;5075582;28;20509;-14
2023/01/03 05:45:15;;;;;;;0.35;0.35;;;18.70;71.30;;;;;;5079375;28;20124;-14
2023/01/03 05:47:40;;;;;;;0.40;0.30;;;18.70;71.10;;;;;;5079345;28;20043;-14
2023/01/03 05:50:06;;;;;;;2.47;0.40;;;18.70;71.10;;;;;;5077963;28;20516;-16
2023/01/03 05:52:32;;;;;;;0.47;0.47;;;18.70;71.20;;;;;;5078313;28;20044;-15
2023/01/03 05:54:57;;;;;;;0.52;0.30;;;18.70;71.20;;;;;;5072834;28;20128;-14
2023/01/03 05:57:23;;;;;;;0.30;0.30;;;18.70;71.20;;;;;;5077296;28;20399;-14
2023/01/03 05:59:48;;;;;;;2.13;0.60;;;18.70;71.10;;;;;;5076251;28;20028;-14
2023/01/03 06:02:14;;;;;;;0.43;0.40;;;18.70;71.10;;;;;;5076783;28;20478;-13
2023/01/03 06:04:40;;;;;;;0.45;0.45;;;18.80;71.90;;;;;;5078616;28;20070;-16
2023/01/03 06:07:05;;;;;;;0.40;0.40;;;18.70;71.00;;;;;;5077135;28;20032;-15
2023/01/03 06:09:31;;;;;;;0.47;0.40;;;18.80;70.90;;;;;;5077906;28;20455;-14
2023/01/03 06:11:57;;;;;;;0.40;0.40;;;18.70;70.80;;;;;;5080442;28;20056;-13
2023/01/03 06:14:22;;;;;;;0.38;0.30;;;18.70;71.00;;;;;;5077704;28;20063;-17
2023/01/03 06:19:32;;;;;;;;;;;18.70;71.10;;;;;;5078506;28;20043;-17
2023/01/03 06:21:58;;;;;;;0.50;0.38;;;18.70;71.10;;;;;;5072944;28;19908;-13
2023/01/03 06:24:23;;;;;;;0.30;0.30;;;18.70;71.00;;;;;;5078175;28;20079;-14
2023/01/03 06:26:49;;;;;;;0.60;0.50;;;18.70;71.00;;;;;;5074615;28;20032;-14
2023/01/03 06:29:14;;;;;;;0.52;0.30;;;18.70;70.70;;;;;;5070347;28;20062;-16
2023/01/03 06:31:40;;;;;;;0.57;0.50;;;18.60;70.90;;;;;;5076238;28;20044;-22
2023/01/03 06:34:06;;;;;;;0.30;0.30;;;18.70;71.00;;;;;;5075228;28;20044;-16
2023/01/03 06:36:33;;;;;;;0.30;0.30;;;18.70;71.00;;;;;;5077554;28;20183;-14
2023/01/03 06:38:58;;;;;;;0.40;0.40;;;18.60;71.00;;;;;;5079382;28;20032;-15
2023/01/03 06:41:24;;;;;;;0.52;0.20;;;18.60;71.10;;;;;;5076373;28;20047;-15
2023/01/03 06:43:50;;;;;;;0.30;0.30;;;18.70;71.00;;;;;;5071211;28;20060;-16
2023/01/03 06:54:31;;;;;;;0.40;0.30;;;18.60;70.70;;;;;;5063676;28;20048;-13
2023/01/03 06:56:57;;;;;;;0.38;0.32;;;18.60;71.00;;;;;;5056639;28;20145;-14
2023/01/03 06:59:25;;;;;;;0.40;0.40;;;18.60;70.70;;;;;;5075321;28;20135;-38
2023/01/03 07:01:51;;;;;;;0.43;0.30;;;18.50;70.90;;;;;;5079807;28;20101;-14
2023/01/03 07:04:17;;;;;;;0.50;0.50;;;18.50;71.10;;;;;;5071760;28;20505;-14
2023/01/03 07:06:43;;;;;;;0.50;0.50;;;18.40;71.20;;;;;;5074916;28;20062;-13
2023/01/03 07:09:09;;;;;;;0.63;0.63;;;18.40;71.10;;;;;;5074339;28;20065;-13
2023/01/03 07:11:35;;;;;;;1.13;1.02;;;18.50;71.30;;;;;;5077153;28;20052;-14
2023/01/03 07:14:02;;;;;;;0.68;0.60;;;18.50;71.10;;;;;;5073891;28;20524;-15
2023/01/03 07:16:35;;;;;;;0.80;0.80;;;18.60;71.10;;;;;;5077148;28;20516;-13
2023/01/03 07:19:02;;;;;;;1.50;0.97;;;18.70;70.80;;;;;;5077733;28;21030;-20
2023/01/03 07:21:28;;;;;;;0.85;0.85;;;18.80;70.40;;;;;;5079196;28;20301;-16
2023/01/03 07:23:55;;;;;;;1.08;0.98;;;18.70;70.70;;;;;;5080434;28;20036;-14
2023/01/03 07:26:20;;;;;;;2.28;1.00;;;18.60;71.90;;;;;;5078337;28;20052;-15
2023/01/03 07:28:46;;;;;;;2.30;0.80;;;18.70;71.00;;;;;;5083903;28;20044;-15
2023/01/03 07:31:12;;;;;;;0.80;0.80;;;18.80;70.90;;;;;;5079378;28;20123;-13
2023/01/03 07:33:38;;;;;;;2.08;0.80;;;18.90;70.70;;;;;;5083031;28;20059;-17
2023/01/03 07:36:08;;;;;;;1.00;1.00;;;18.70;71.10;;;;;;5081086;28;20055;-17
2023/01/03 07:38:34;;;;;;;0.88;0.88;;;18.70;71.30;;;;;;5079534;28;20048;-14
2023/01/03 07:41:00;;;;;;;2.42;1.20;;;18.70;71.20;;;;;;5071803;28;20334;-14
2023/01/03 07:43:38;;;;;;;1.98;1.13;;;18.90;71.00;;;;;;5082147;28;20043;-14
2023/01/03 07:46:11;;;;;;;1.70;1.23;;;18.90;70.90;;;;;;5074337;28;20055;-16
2023/01/03 07:48:36;;;;;;;2.20;1.10;;;18.90;70.60;;;;;;5075071;28;20133;-14
2023/01/03 07:51:02;;;;;;;1.02;1.00;;;18.80;70.90;;;;;;5080416;28;20509;-13
2023/01/03 07:53:28;;;;;;;3.45;1.27;;;18.80;72.30;;;;;;5078610;28;20456;-15
2023/01/03 07:55:54;;;;;;;2.90;1.13;;;18.80;71.40;;;;;;5081810;28;20048;-15
2023/01/03 07:58:19;;;;;;;1.70;1.25;;;18.80;71.10;;;;;;5079452;28;20095;-16
2023/01/03 08:00:45;;;;;;;1.27;1.17;;;18.80;71.20;;;;;;5079885;28;20055;-14
2023/01/03 08:03:10;;;;;;;1.38;0.98;;;18.70;71.50;;;;;;5078706;28;20491;-14
2023/01/03 08:05:36;;;;;;;2.47;1.33;;;18.70;71.60;;;;;;5073215;28;20048;-15
2023/01/03 08:08:02;;;;;;;1.83;1.40;;;18.80;71.30;;;;;;5081538;28;20040;-14
2023/01/03 08:13:18;;;;;;;4.80;1.02;;;18.70;71.60;;;;;;5080508;28;20050;-14
2023/01/03 08:15:47;;;;;;;2.88;2.58;;;18.60;71.50;;;;;;5081385;28;20040;-14
2023/01/03 08:18:13;;;;;;;4.07;3.03;;;18.60;71.90;;;;;;5079243;28;20113;-13
2023/01/03 08:20:39;;;;;;;5.07;3.40;;;18.60;71.90;;;;;;5078367;28;20063;-14
2023/01/03 08:23:05;;;;;;;4.75;3.50;;;18.70;71.90;;;;;;5080295;28;20517;-14
2023/01/03 08:25:30;;;;;;;4.47;3.15;;;18.70;71.70;;;;;;5080831;28;20056;-14
2023/01/03 08:27:59;;;;;;;4.13;3.42;;;18.70;71.80;;;;;;5081417;28;20047;-14
2023/01/03 08:30:25;;;;;;;3.75;3.28;;;18.60;71.70;;;;;;5080372;28;20193;-20
2023/01/03 08:32:51;;;;;;;4.80;3.90;;;18.60;71.70;;;;;;5089164;28;20131;-15
2023/01/03 08:35:17;;;;;;;3.47;3.17;;;18.60;71.40;;;;;;5090764;28;20048;-18
2023/01/03 08:37:43;;;;;;;6.32;4.03;;;18.70;71.40;;;;;;5092754;28;20032;-13
2023/01/03 08:40:10;;;;;;;3.85;3.47;;;18.70;71.10;;;;;;5091758;28;20047;-15
2023/01/03 08:42:35;;;;;;;4.38;3.30;;;18.70;71.10;;;;;;5074329;28;20039;-14
2023/01/03 08:45:03;;;;;;;4.18;3.22;;;18.60;70.90;;;;;;5074778;28;20134;-24
2023/01/03 08:47:28;;;;;;;4.63;3.75;;;18.60;70.90;;;;;;5092311;28;20036;-13
2023/01/03 08:49:57;;;;;;;3.35;2.55;;;18.60;70.70;;;;;;5091391;28;20119;-13
2023/01/03 08:52:22;;;;;;;5.70;2.92;;;18.80;70.00;;;;;;5092058;28;20060;-26
2023/01/03 08:54:48;;;;;;;3.47;2.90;;;18.70;70.10;;;;;;5092331;28;20067;-14
2023/01/03 08:57:14;;;;;;;2.95;2.45;;;18.70;70.00;;;;;;5091918;28;20046;-14
2023/01/03 08:59:39;;;;;;;3.60;2.88;;;18.90;69.80;;;;;;5083180;28;20094;-13
2023/01/03 09:02:05;;;;;;;2.58;2.25;;;18.80;69.60;;;;;;5071637;28;20063;-13
2023/01/03 09:04:30;;;;;;;3.42;2.60;;;18.80;69.70;;;;;;5071990;28;20032;-13
2023/01/03 09:06:56;;;;;;;3.10;2.80;;;18.80;69.50;;;;;;5072101;28;20028;-13
2023/01/03 09:09:22;;;;;;;3.00;2.47;;;19.00;69.40;;;;;;5071144;28;20044;-14
2023/01/03 09:11:47;;;;;;;3.08;2.72;;;19.00;69.10;;;;;;5072067;28;20047;-15
2023/01/03 09:14:13;;;;;;;4.78;2.95;;;19.00;68.90;;;;;;5071132;28;20059;-13
2023/01/03 09:16:38;;;;;;;2.13;1.92;;;19.00;68.80;;;;;;5071582;28;20591;-15
2023/01/03 09:19:04;;;;;;;4.05;2.60;;;19.00;68.90;;;;;;5071018;28;20040;-15
2023/01/03 09:21:30;;;;;;;2.20;2.00;;;19.00;68.60;;;;;;5055568;28;20045;-16
2023/01/03 09:23:57;;;;;;;2.25;2.05;;;19.10;68.50;;;;;;5053807;28;20060;-15
2023/01/03 09:26:23;;;;;;;4.03;1.90;;;19.10;68.40;;;;;;5071039;28;20048;-15
2023/01/03 09:28:49;;;;;;;2.53;2.17;;;19.10;68.40;;;;;;5071441;28;20036;-16
2023/01/03 09:31:14;;;;;;;2.10;1.90;;;19.10;68.20;;;;;;5070891;28;20036;-15
2023/01/03 09:33:40;;;;;;;2.20;1.92;;;19.20;67.90;;;;;;5071416;28;20048;-16
2023/01/03 09:36:05;;;;;;;3.40;2.08;;;19.20;67.80;;;;;;5070404;28;20052;-14
2023/01/03 09:38:31;;;;;;;3.08;1.90;;;19.10;68.00;;;;;;5070843;28;20394;-13
2023/01/03 09:41:08;;;;;;;1.65;1.55;;;19.10;68.30;;;;;;5071208;28;20047;-14
2023/01/03 09:43:41;;;;;;;2.17;1.90;;;19.10;68.00;;;;;;5070548;28;20044;-14
2023/01/03 09:46:21;;;;;;;2.10;1.90;;;19.20;68.00;;;;;;5070566;28;20045;-14
2023/01/03 09:48:49;;;;;;;3.47;2.03;;;19.10;68.30;;;;;;5069888;28;20275;-14
2023/01/03 10:03:43;;;;;;;2.15;1.55;;;19.10;68.10;;;;;;5055054;28;20059;-13
2023/01/03 10:06:35;;;;;;;1.50;1.40;;;19.10;67.90;;;;;;5070088;28;20045;-14
2023/01/03 10:09:14;;;;;;;2.63;1.88;;;19.10;68.00;;;;;;5070902;28;20048;-14
2023/01/03 10:11:57;;;;;;;2.15;1.60;;;19.10;68.00;;;;;;5070158;28;20040;-15
2023/01/03 10:14:38;;;;;;;1.43;1.20;;;19.10;68.00;;;;;;5069886;28;20370;-15
2023/01/03 10:17:12;;;;;;;1.63;1.33;;;19.10;68.10;;;;;;5070555;28;20286;-13
2023/01/03 10:20:02;;;;;;;1.50;1.40;;;19.10;68.00;;;;;;5069901;28;20516;-15
2023/01/03 10:22:29;;;;;;;2.30;1.30;;;19.10;68.00;;;;;;5069952;28;20103;-13
2023/01/03 10:25:03;;;;;;;2.38;1.50;;;19.10;67.90;;;;;;5069388;28;20047;-13
2023/01/03 10:27:39;;;;;;;1.92;1.70;;;19.10;68.10;;;;;;5069958;28;20040;-14
2023/01/03 10:30:05;;;;;;;1.67;1.52;;;19.10;68.00;;;;;;5069371;28;20508;-15
2023/01/03 10:32:52;;;;;;;4.35;1.40;;;19.00;68.00;;;;;;5069618;28;20071;-14
2023/01/03 10:35:22;;;;;;;1.20;1.10;;;19.00;68.00;;;;;;5069280;28;20119;-16
2023/01/03 10:37:53;;;;;;;1.98;1.20;;;19.10;68.00;;;;;;5070273;28;20040;-14
2023/01/03 10:40:19;;;;;;;2.63;1.50;;;19.10;68.20;;;;;;5069562;28;20098;-13
2023/01/03 10:42:45;;;;;;;1.63;1.52;;;19.10;68.00;;;;;;5070484;28;20037;-14
2023/01/03 10:45:13;;;;;;;1.73;1.50;;;19.10;67.90;;;;;;5069657;28;20037;-13
2023/01/03 10:47:38;;;;;;;1.80;1.20;;;19.10;68.00;;;;;;5069274;28;20095;-14
2023/01/03 10:50:05;;;;;;;2.05;1.30;;;19.10;68.10;;;;;;5069489;28;20032;-16
2023/01/03 10:52:38;;;;;;;1.40;1.30;;;19.10;68.00;;;;;;5069403;28;20045;-14
2023/01/03 10:55:12;;;;;;;2.77;1.40;;;19.10;68.00;;;;;;5069153;28;20049;-14
2023/01/03 10:57:40;;;;;;;;;;;19.20;67.90;;;;;;5068778;28;20029;-17
2023/01/03 11:00:25;;;;;;;1.42;1.23;;;19.10;67.80;;;;;;5070081;28;20017;-14
2023/01/03 11:02:50;;;;;;;1.92;1.58;;;19.20;67.90;;;;;;5064259;28;20130;-13
2023/01/03 11:05:21;;;;;;;2.38;2.17;;;19.10;68.10;;;;;;5065532;28;20529;-14
2023/01/03 11:07:57;;;;;;;3.00;2.30;;;19.10;68.10;;;;;;5065537;28;20037;-14
2023/01/03 11:10:33;;;;;;;2.63;2.08;;;19.20;68.20;;;;;;5064133;28;20041;-17
2023/01/03 11:12:58;;;;;;;5.07;2.30;;;19.10;68.20;;;;;;5058531;28;20494;-16
2023/01/03 11:15:44;;;;;;;4.13;2.40;;;19.20;68.00;;;;;;5063685;28;20037;-18
2023/01/03 11:18:16;;;;;;;2.42;1.95;;;19.30;67.90;;;;;;5061499;28;20076;-15
2023/01/03 11:20:51;;;;;;;3.08;2.10;;;19.20;68.00;;;;;;5064506;28;20044;-15
2023/01/03 11:23:34;;;;;;;2.65;2.45;;;19.30;68.10;;;;;;5068478;28;20110;-19
2023/01/03 11:26:12;;;;;;;3.25;2.63;;;19.30;67.70;;;;;;5048477;28;20053;-14
2023/01/03 11:28:45;;;;;;;3.90;2.50;;;19.40;67.90;;;;;;5043369;28;20410;-18
2023/01/03 11:31:15;;;;;;;2.38;2.17;;;19.30;68.00;;;;;;5062370;28;20040;-15
2023/01/03 11:33:46;;;;;;;2.78;2.10;;;19.30;68.20;;;;;;5062555;28;20047;-16
2023/01/03 11:36:15;;;;;;;2.55;2.35;;;19.30;68.30;;;;;;5079030;28;20135;-13
2023/01/03 11:38:45;;;;;;;2.85;1.80;;;19.30;68.40;;;;;;5059879;28;20044;-16
2023/01/03 11:41:17;;;;;;;2.08;1.85;;;19.30;68.30;;;;;;5043946;28;20032;-14
2023/01/03 11:44:04;;;;;;;2.25;2.05;;;19.30;68.50;;;;;;5074095;28;20601;-13
2023/01/03 11:46:48;;;;;;;2.38;1.77;;;19.30;68.30;;;;;;5072491;28;20075;-14
2023/01/03 11:49:28;;;;;;;1.85;1.75;;;19.40;68.50;;;;;;5064732;28;20052;-15
2023/01/03 11:52:06;;;;;;;2.25;1.90;;;19.40;68.40;;;;;;5046603;28;20036;-14
2023/01/03 11:55:10;;;;;;;2.80;2.20;;;19.40;68.60;;;;;;5046830;28;20481;-14
2023/01/03 11:57:46;;;;;;;2.08;1.77;;;19.40;68.50;;;;;;5049551;28;20139;-14
2023/01/03 12:00:36;;;;;;;2.63;1.95;;;19.40;68.50;;;;;;5050250;28;20045;-14
2023/01/03 12:03:42;;;;;;;2.00;1.90;;;19.40;68.40;;;;;;5052239;28;20412;-14
2023/01/03 12:06:17;;;;;;;2.13;1.48;;;19.40;68.60;;;;;;5034363;28;20036;-15
2023/01/03 12:09:15;;;;;;;2.05;1.85;;;19.40;68.70;;;;;;5066380;28;20044;-14
2023/01/03 12:12:06;;;;;;;2.47;2.13;;;19.40;68.80;;;;;;5057628;28;20369;-18
2023/01/03 12:14:43;;;;;;;1.70;1.60;;;19.50;68.60;;;;;;5048475;28;20230;-14
2023/01/03 12:17:15;;;;;;;1.80;1.70;;;19.40;68.70;;;;;;5046231;28;20044;-14
2023/01/03 12:19:44;;;;;;;2.10;1.52;;;19.30;68.70;;;;;;5051730;28;20048;-19
2023/01/03 12:22:36;;;;;;;2.00;1.80;;;19.40;68.80;;;;;;5048262;28;20190;-20
2023/01/03 12:25:18;;;;;;;1.60;1.50;;;19.40;68.80;;;;;;5045422;28;20106;-16
2023/01/03 12:27:45;;;;;;;1.92;1.83;;;19.40;68.70;;;;;;5049220;28;20080;-16
2023/01/03 12:30:23;;;;;;;2.15;1.80;;;19.40;68.90;;;;;;5049190;28;20127;-15
2023/01/03 12:32:58;;;;;;;1.92;1.38;;;19.40;69.10;;;;;;5052488;28;20040;-15
2023/01/03 12:35:40;;;;;;;2.10;1.73;;;19.40;69.50;;;;;;5054285;28;20052;-13
2023/01/03 12:38:07;;;;;;;3.13;1.70;;;19.40;69.50;;;;;;5067578;28;20102;-20
2023/01/03 12:40:55;;;;;;;3.42;1.58;;;19.40;69.80;;;;;;5050892;28;20043;-14
2023/01/03 12:43:33;;;;;;;3.67;2.60;;;19.40;70.00;;;;;;5033327;28;20124;-14
2023/01/03 12:46:18;;;;;;;11.07;5.93;;;19.50;70.00;;;;;;5071281;28;20036;-13
2023/01/03 12:49:04;;;;;;;24.27;9.85;;;19.40;70.20;;;;;;5074468;28;20047;-15
2023/01/03 12:51:30;;;;;;;31.58;14.40;;;19.40;70.10;;;;;;5052293;28;20285;-16
2023/01/03 12:54:29;;;;;;;36.08;17.85;;;19.40;70.30;;;;;;5069142;28;20390;-16
2023/01/03 12:57:16;;;;;;;48.25;20.55;;;19.50;70.50;;;;;;5070056;28;20060;-14
2023/01/03 12:59:44;;;;;;;47.35;22.83;;;19.50;70.30;;;;;;5069965;28;20488;-10
2023/01/03 13:02:20;;;;;;;53.20;25.45;;;19.40;70.70;;;;;;5074539;28;20098;-11
2023/01/03 13:04:46;;;;;;;57.45;26.63;;;19.50;70.80;;;;;;5075607;28;20051;-10
2023/01/03 13:07:12;;;;;;;62.42;28.30;;;19.40;70.60;;;;;;5054204;28;20032;-10
2023/01/03 13:09:40;;;;;;;64.72;28.45;;;19.40;71.10;;;;;;5057205;28;20722;-10
2023/01/03 13:12:11;;;;;;;64.72;30.08;;;19.50;70.60;;;;;;5067884;28;20032;-10
2023/01/03 13:15:02;;;;;;;66.18;28.45;;;19.60;70.40;;;;;;5064516;28;20525;-16
2023/01/03 13:17:29;;;;;;;62.17;27.63;;;19.50;70.90;;;;;;5066533;28;20129;-10
2023/01/03 13:19:58;;;;;;;59.13;28.60;;;19.50;70.90;;;;;;5031259;28;20059;-10
2023/01/03 13:22:27;;;;;;;55.72;26.83;;;19.50;71.50;;;;;;5047821;28;20044;-10
2023/01/03 13:24:52;;;;;;;58.80;27.85;;;19.50;70.90;;;;;;5070679;28;20117;-10
2023/01/03 13:29:47;;;;;;;60.70;26.83;;;19.50;71.00;;;;;;5071451;28;20044;-10
2023/01/03 13:32:19;;;;;;;57.88;28.65;;;19.50;70.80;;;;;;5068656;28;20048;-11
2023/01/03 13:34:56;;;;;;;60.92;28.15;;;19.50;71.30;;;;;;5070236;28;20072;-12
2023/01/03 13:37:40;;;;;;;57.75;27.00;;;19.50;71.30;;;;;;5048550;28;20075;-9
2023/01/03 13:40:12;;;;;;;57.10;25.33;;;19.50;70.90;;;;;;5054502;28;20283;-10
2023/01/03 13:42:38;;;;;;;56.80;27.88;;;19.50;71.10;;;;;;5074491;28;20495;-10
2023/01/03 13:45:09;;;;;;;48.72;25.15;;;19.50;71.30;;;;;;5076036;28;20109;-10
2023/01/03 13:47:38;;;;;;;57.03;27.38;;;19.50;70.90;;;;;;5075614;28;20035;-10
2023/01/03 13:50:04;;;;;;;48.63;24.35;;;19.50;71.40;;;;;;5047939;28;20055;-11
2023/01/03 13:52:39;;;;;;;53.47;24.70;;;19.60;71.50;;;;;;5062147;28;20140;-10
2023/01/03 13:55:37;;;;;;;44.28;22.45;;;19.60;71.10;;;;;;5039869;28;20055;-15
2023/01/03 13:58:27;;;;;;;47.63;22.05;;;19.60;71.10;;;;;;5050339;28;20119;-14
2023/01/03 14:01:00;;;;;;;47.58;22.80;;;19.60;71.10;;;;;;5036250;28;20080;-19